sensor_id;sensor_type;location;lat;lon;timestamp;P1;durP1;ratioP1;P2;durP2;ratioP2
9080;SDS011;13509;50.760;6.080;2023-10-09T00:00:06;8.70;;;4.13;;
9080;SDS011;13509;50.760;6.080;2023-10-09T00:03:02;7.60;;;4.23;;
9080;SDS011;13509;50.760;6.080;2023-10-09T00:05:34;9.80;;;4.77;;
9080;SDS011;13509;50.760;6.080;2023-10-09T00:08:12;6.90;;;4.57;;
9080;SDS011;13509;50.760;6.080;2023-10-09T00:10:48;7.30;;;4.70;;
9080;SDS011;13509;50.760;6.080;2023-10-09T00:13:20;8.13;;;4.27;;
9080;SDS011;13509;50.760;6.080;2023-10-09T00:15:54;7.57;;;4.23;;
9080;SDS011;13509;50.760;6.080;2023-10-09T00:18:26;9.30;;;4.70;;
9080;SDS011;13509;50.760;6.080;2023-10-09T00:20:58;9.10;;;5.13;;
9080;SDS011;13509;50.760;6.080;2023-10-09T00:23:38;7.67;;;4.80;;
9080;SDS011;13509;50.760;6.080;2023-10-09T00:26:07;11.50;;;4.80;;
9080;SDS011;13509;50.760;6.080;2023-10-09T00:28:37;8.10;;;4.63;;
9080;SDS011;13509;50.760;6.080;2023-10-09T00:31:09;6.97;;;4.63;;
9080;SDS011;13509;50.760;6.080;2023-10-09T00:33:41;11.87;;;5.20;;
9080;SDS011;13509;50.760;6.080;2023-10-09T00:36:11;6.47;;;4.60;;
9080;SDS011;13509;50.760;6.080;2023-10-09T00:38:44;9.53;;;4.60;;
9080;SDS011;13509;50.760;6.080;2023-10-09T00:41:17;8.87;;;5.17;;
9080;SDS011;13509;50.760;6.080;2023-10-09T00:43:48;8.70;;;4.77;;
9080;SDS011;13509;50.760;6.080;2023-10-09T00:46:17;8.43;;;4.90;;
9080;SDS011;13509;50.760;6.080;2023-10-09T00:48:52;6.37;;;4.27;;
9080;SDS011;13509;50.760;6.080;2023-10-09T00:51:21;9.00;;;4.37;;
9080;SDS011;13509;50.760;6.080;2023-10-09T00:53:51;8.83;;;4.67;;
9080;SDS011;13509;50.760;6.080;2023-10-09T00:56:20;7.40;;;4.83;;
9080;SDS011;13509;50.760;6.080;2023-10-09T00:58:56;9.60;;;4.80;;
9080;SDS011;13509;50.760;6.080;2023-10-09T01:01:32;8.33;;;4.80;;
9080;SDS011;13509;50.760;6.080;2023-10-09T01:04:03;9.87;;;4.60;;
9080;SDS011;13509;50.760;6.080;2023-10-09T01:06:35;6.43;;;4.23;;
9080;SDS011;13509;50.760;6.080;2023-10-09T01:09:10;8.17;;;5.33;;
9080;SDS011;13509;50.760;6.080;2023-10-09T01:11:40;7.57;;;4.63;;
9080;SDS011;13509;50.760;6.080;2023-10-09T01:14:15;7.90;;;4.67;;
9080;SDS011;13509;50.760;6.080;2023-10-09T01:16:47;9.10;;;4.70;;
9080;SDS011;13509;50.760;6.080;2023-10-09T01:19:20;7.83;;;4.80;;
9080;SDS011;13509;50.760;6.080;2023-10-09T01:21:51;9.23;;;5.00;;
9080;SDS011;13509;50.760;6.080;2023-10-09T01:24:21;10.07;;;4.73;;
9080;SDS011;13509;50.760;6.080;2023-10-09T01:26:53;7.20;;;4.47;;
9080;SDS011;13509;50.760;6.080;2023-10-09T01:29:23;9.07;;;4.87;;
9080;SDS011;13509;50.760;6.080;2023-10-09T01:31:54;9.32;;;5.15;;
9080;SDS011;13509;50.760;6.080;2023-10-09T01:34:23;6.80;;;4.77;;
9080;SDS011;13509;50.760;6.080;2023-10-09T01:37:05;11.47;;;5.20;;
9080;SDS011;13509;50.760;6.080;2023-10-09T01:39:39;9.17;;;4.90;;
9080;SDS011;13509;50.760;6.080;2023-10-09T01:42:08;10.20;;;4.97;;
9080;SDS011;13509;50.760;6.080;2023-10-09T01:44:37;11.73;;;5.67;;
9080;SDS011;13509;50.760;6.080;2023-10-09T01:47:10;11.23;;;4.77;;
9080;SDS011;13509;50.760;6.080;2023-10-09T01:49:44;9.17;;;5.03;;
9080;SDS011;13509;50.760;6.080;2023-10-09T01:52:16;9.00;;;5.50;;
9080;SDS011;13509;50.760;6.080;2023-10-09T01:54:46;7.57;;;4.93;;
9080;SDS011;13509;50.760;6.080;2023-10-09T01:57:16;7.70;;;4.90;;
9080;SDS011;13509;50.760;6.080;2023-10-09T01:59:49;10.73;;;5.50;;
9080;SDS011;13509;50.760;6.080;2023-10-09T02:02:20;8.17;;;4.57;;
9080;SDS011;13509;50.760;6.080;2023-10-09T02:05:00;6.67;;;4.87;;
9080;SDS011;13509;50.760;6.080;2023-10-09T02:07:37;8.57;;;4.80;;
9080;SDS011;13509;50.760;6.080;2023-10-09T02:10:12;10.07;;;5.23;;
9080;SDS011;13509;50.760;6.080;2023-10-09T02:12:52;8.53;;;5.07;;
9080;SDS011;13509;50.760;6.080;2023-10-09T02:15:25;8.37;;;5.07;;
9080;SDS011;13509;50.760;6.080;2023-10-09T02:18:07;6.93;;;4.80;;
9080;SDS011;13509;50.760;6.080;2023-10-09T02:20:45;10.20;;;4.50;;
9080;SDS011;13509;50.760;6.080;2023-10-09T02:23:14;8.50;;;5.07;;
9080;SDS011;13509;50.760;6.080;2023-10-09T02:25:45;11.60;;;5.30;;
9080;SDS011;13509;50.760;6.080;2023-10-09T02:28:19;8.13;;;5.17;;
9080;SDS011;13509;50.760;6.080;2023-10-09T02:30:47;7.80;;;4.97;;
9080;SDS011;13509;50.760;6.080;2023-10-09T02:33:16;10.20;;;5.13;;
9080;SDS011;13509;50.760;6.080;2023-10-09T02:35:54;12.60;;;5.43;;
9080;SDS011;13509;50.760;6.080;2023-10-09T02:38:26;8.17;;;4.97;;
9080;SDS011;13509;50.760;6.080;2023-10-09T02:40:55;11.17;;;5.30;;
9080;SDS011;13509;50.760;6.080;2023-10-09T02:43:41;10.80;;;5.33;;
9080;SDS011;13509;50.760;6.080;2023-10-09T02:46:12;7.00;;;4.57;;
9080;SDS011;13509;50.760;6.080;2023-10-09T02:48:44;9.90;;;5.10;;
9080;SDS011;13509;50.760;6.080;2023-10-09T02:51:17;7.77;;;5.00;;
9080;SDS011;13509;50.760;6.080;2023-10-09T02:53:59;7.53;;;4.73;;
9080;SDS011;13509;50.760;6.080;2023-10-09T02:56:36;17.43;;;5.80;;
9080;SDS011;13509;50.760;6.080;2023-10-09T02:59:09;12.73;;;5.40;;
9080;SDS011;13509;50.760;6.080;2023-10-09T03:01:38;9.27;;;4.87;;
9080;SDS011;13509;50.760;6.080;2023-10-09T03:04:07;11.40;;;5.27;;
9080;SDS011;13509;50.760;6.080;2023-10-09T03:06:37;9.63;;;4.97;;
9080;SDS011;13509;50.760;6.080;2023-10-09T03:09:12;8.60;;;4.73;;
9080;SDS011;13509;50.760;6.080;2023-10-09T03:11:46;8.17;;;5.23;;
9080;SDS011;13509;50.760;6.080;2023-10-09T03:14:20;9.60;;;4.67;;
9080;SDS011;13509;50.760;6.080;2023-10-09T03:16:52;12.90;;;5.53;;
9080;SDS011;13509;50.760;6.080;2023-10-09T03:19:22;8.37;;;5.63;;
9080;SDS011;13509;50.760;6.080;2023-10-09T03:21:51;8.43;;;4.83;;
9080;SDS011;13509;50.760;6.080;2023-10-09T03:24:19;10.77;;;5.53;;
9080;SDS011;13509;50.760;6.080;2023-10-09T03:26:50;8.50;;;5.37;;
9080;SDS011;13509;50.760;6.080;2023-10-09T03:29:22;6.43;;;4.87;;
9080;SDS011;13509;50.760;6.080;2023-10-09T03:31:50;8.43;;;4.57;;
9080;SDS011;13509;50.760;6.080;2023-10-09T03:34:19;9.43;;;5.17;;
9080;SDS011;13509;50.760;6.080;2023-10-09T03:36:48;10.33;;;5.03;;
9080;SDS011;13509;50.760;6.080;2023-10-09T03:39:26;8.73;;;4.60;;
9080;SDS011;13509;50.760;6.080;2023-10-09T03:42:02;7.17;;;4.70;;
9080;SDS011;13509;50.760;6.080;2023-10-09T03:44:32;8.97;;;5.00;;
9080;SDS011;13509;50.760;6.080;2023-10-09T03:47:06;11.17;;;4.50;;
9080;SDS011;13509;50.760;6.080;2023-10-09T03:49:37;11.93;;;4.93;;
9080;SDS011;13509;50.760;6.080;2023-10-09T03:52:06;9.97;;;4.30;;
9080;SDS011;13509;50.760;6.080;2023-10-09T03:54:34;10.53;;;5.00;;
9080;SDS011;13509;50.760;6.080;2023-10-09T03:57:06;7.47;;;5.60;;
9080;SDS011;13509;50.760;6.080;2023-10-09T03:59:34;8.97;;;5.30;;
9080;SDS011;13509;50.760;6.080;2023-10-09T04:02:03;10.27;;;6.10;;
9080;SDS011;13509;50.760;6.080;2023-10-09T04:04:32;10.70;;;5.03;;
9080;SDS011;13509;50.760;6.080;2023-10-09T04:07:00;8.70;;;5.20;;
9080;SDS011;13509;50.760;6.080;2023-10-09T04:09:28;6.87;;;4.60;;
9080;SDS011;13509;50.760;6.080;2023-10-09T04:12:07;6.27;;;4.20;;
9080;SDS011;13509;50.760;6.080;2023-10-09T04:14:51;7.87;;;4.93;;
9080;SDS011;13509;50.760;6.080;2023-10-09T04:17:24;9.50;;;5.50;;
9080;SDS011;13509;50.760;6.080;2023-10-09T04:20:03;8.57;;;4.93;;
9080;SDS011;13509;50.760;6.080;2023-10-09T04:22:49;10.53;;;5.40;;
9080;SDS011;13509;50.760;6.080;2023-10-09T04:25:18;8.30;;;5.30;;
9080;SDS011;13509;50.760;6.080;2023-10-09T04:27:54;9.00;;;5.33;;
9080;SDS011;13509;50.760;6.080;2023-10-09T04:30:35;8.17;;;4.87;;
9080;SDS011;13509;50.760;6.080;2023-10-09T04:33:07;9.37;;;5.20;;
9080;SDS011;13509;50.760;6.080;2023-10-09T04:35:54;8.07;;;4.77;;
9080;SDS011;13509;50.760;6.080;2023-10-09T04:38:40;8.90;;;5.37;;
9080;SDS011;13509;50.760;6.080;2023-10-09T04:41:21;11.37;;;5.40;;
9080;SDS011;13509;50.760;6.080;2023-10-09T04:44:00;9.13;;;5.30;;
9080;SDS011;13509;50.760;6.080;2023-10-09T04:46:45;6.43;;;4.73;;
9080;SDS011;13509;50.760;6.080;2023-10-09T04:49:41;8.63;;;5.00;;
9080;SDS011;13509;50.760;6.080;2023-10-09T04:52:16;8.97;;;4.80;;
9080;SDS011;13509;50.760;6.080;2023-10-09T04:55:11;10.30;;;5.40;;
9080;SDS011;13509;50.760;6.080;2023-10-09T04:57:45;11.77;;;5.73;;
9080;SDS011;13509;50.760;6.080;2023-10-09T05:00:29;10.03;;;5.23;;
9080;SDS011;13509;50.760;6.080;2023-10-09T05:03:12;9.00;;;5.30;;
9080;SDS011;13509;50.760;6.080;2023-10-09T05:05:51;8.00;;;5.20;;
9080;SDS011;13509;50.760;6.080;2023-10-09T05:08:26;8.80;;;5.53;;
9080;SDS011;13509;50.760;6.080;2023-10-09T05:11:00;9.00;;;5.17;;
9080;SDS011;13509;50.760;6.080;2023-10-09T05:13:44;8.73;;;6.00;;
9080;SDS011;13509;50.760;6.080;2023-10-09T05:16:25;10.83;;;5.70;;
9080;SDS011;13509;50.760;6.080;2023-10-09T05:18:53;9.47;;;5.70;;
9080;SDS011;13509;50.760;6.080;2023-10-09T05:21:24;9.50;;;6.10;;
9080;SDS011;13509;50.760;6.080;2023-10-09T05:24:03;16.57;;;6.40;;
9080;SDS011;13509;50.760;6.080;2023-10-09T05:26:46;9.70;;;5.93;;
9080;SDS011;13509;50.760;6.080;2023-10-09T05:29:20;11.70;;;6.27;;
9080;SDS011;13509;50.760;6.080;2023-10-09T05:32:03;10.97;;;5.90;;
9080;SDS011;13509;50.760;6.080;2023-10-09T05:34:42;7.57;;;5.00;;
9080;SDS011;13509;50.760;6.080;2023-10-09T05:37:24;10.80;;;6.27;;
9080;SDS011;13509;50.760;6.080;2023-10-09T05:39:59;8.60;;;5.47;;
9080;SDS011;13509;50.760;6.080;2023-10-09T05:42:48;8.60;;;5.33;;
9080;SDS011;13509;50.760;6.080;2023-10-09T05:45:26;12.33;;;6.30;;
9080;SDS011;13509;50.760;6.080;2023-10-09T05:48:26;10.43;;;5.87;;
9080;SDS011;13509;50.760;6.080;2023-10-09T05:51:15;11.00;;;5.73;;
9080;SDS011;13509;50.760;6.080;2023-10-09T05:53:58;9.07;;;5.40;;
9080;SDS011;13509;50.760;6.080;2023-10-09T05:56:43;11.93;;;5.30;;
9080;SDS011;13509;50.760;6.080;2023-10-09T05:59:56;9.20;;;4.93;;
9080;SDS011;13509;50.760;6.080;2023-10-09T06:02:42;9.83;;;5.03;;
9080;SDS011;13509;50.760;6.080;2023-10-09T06:05:30;11.13;;;5.10;;
9080;SDS011;13509;50.760;6.080;2023-10-09T06:08:07;9.63;;;5.93;;
9080;SDS011;13509;50.760;6.080;2023-10-09T06:10:36;10.07;;;5.70;;
9080;SDS011;13509;50.760;6.080;2023-10-09T06:13:07;11.13;;;5.93;;
9080;SDS011;13509;50.760;6.080;2023-10-09T06:15:56;7.63;;;5.27;;
9080;SDS011;13509;50.760;6.080;2023-10-09T06:18:41;8.30;;;5.37;;
9080;SDS011;13509;50.760;6.080;2023-10-09T06:21:22;9.07;;;5.23;;
9080;SDS011;13509;50.760;6.080;2023-10-09T06:24:13;11.17;;;5.47;;
9080;SDS011;13509;50.760;6.080;2023-10-09T06:26:45;8.40;;;5.23;;
9080;SDS011;13509;50.760;6.080;2023-10-09T06:29:34;11.57;;;4.90;;
9080;SDS011;13509;50.760;6.080;2023-10-09T06:32:17;10.00;;;5.33;;
9080;SDS011;13509;50.760;6.080;2023-10-09T06:35:01;8.47;;;5.00;;
9080;SDS011;13509;50.760;6.080;2023-10-09T06:37:45;8.07;;;4.90;;
9080;SDS011;13509;50.760;6.080;2023-10-09T06:40:32;9.27;;;4.90;;
9080;SDS011;13509;50.760;6.080;2023-10-09T06:43:18;9.50;;;5.40;;
9080;SDS011;13509;50.760;6.080;2023-10-09T06:45:54;7.07;;;5.03;;
9080;SDS011;13509;50.760;6.080;2023-10-09T06:48:25;7.83;;;4.70;;
9080;SDS011;13509;50.760;6.080;2023-10-09T06:51:07;7.70;;;5.13;;
9080;SDS011;13509;50.760;6.080;2023-10-09T06:54:01;10.77;;;5.23;;
9080;SDS011;13509;50.760;6.080;2023-10-09T06:56:32;7.13;;;5.10;;
9080;SDS011;13509;50.760;6.080;2023-10-09T06:59:19;7.20;;;4.63;;
9080;SDS011;13509;50.760;6.080;2023-10-09T07:01:50;9.00;;;5.63;;
9080;SDS011;13509;50.760;6.080;2023-10-09T07:04:33;11.83;;;6.20;;
9080;SDS011;13509;50.760;6.080;2023-10-09T07:07:18;8.77;;;5.07;;
9080;SDS011;13509;50.760;6.080;2023-10-09T07:09:48;9.77;;;6.30;;
9080;SDS011;13509;50.760;6.080;2023-10-09T07:12:32;9.83;;;5.17;;
9080;SDS011;13509;50.760;6.080;2023-10-09T07:15:00;8.23;;;4.73;;
9080;SDS011;13509;50.760;6.080;2023-10-09T07:17:28;9.43;;;5.20;;
9080;SDS011;13509;50.760;6.080;2023-10-09T07:20:12;8.53;;;5.37;;
9080;SDS011;13509;50.760;6.080;2023-10-09T07:22:41;7.40;;;4.73;;
9080;SDS011;13509;50.760;6.080;2023-10-09T07:25:41;10.03;;;5.63;;
9080;SDS011;13509;50.760;6.080;2023-10-09T07:28:21;9.60;;;5.57;;
9080;SDS011;13509;50.760;6.080;2023-10-09T07:31:16;8.27;;;5.00;;
9080;SDS011;13509;50.760;6.080;2023-10-09T07:33:51;10.00;;;5.53;;
9080;SDS011;13509;50.760;6.080;2023-10-09T07:36:24;9.73;;;5.57;;
9080;SDS011;13509;50.760;6.080;2023-10-09T07:39:01;9.77;;;4.93;;
9080;SDS011;13509;50.760;6.080;2023-10-09T07:41:41;10.80;;;5.30;;
9080;SDS011;13509;50.760;6.080;2023-10-09T07:44:23;9.60;;;5.50;;
9080;SDS011;13509;50.760;6.080;2023-10-09T07:47:09;9.33;;;4.63;;
9080;SDS011;13509;50.760;6.080;2023-10-09T07:49:44;8.90;;;5.80;;
9080;SDS011;13509;50.760;6.080;2023-10-09T07:52:19;8.10;;;4.83;;
9080;SDS011;13509;50.760;6.080;2023-10-09T07:54:49;8.67;;;5.20;;
9080;SDS011;13509;50.760;6.080;2023-10-09T07:57:21;7.77;;;4.93;;
9080;SDS011;13509;50.760;6.080;2023-10-09T07:59:56;7.00;;;4.67;;
9080;SDS011;13509;50.760;6.080;2023-10-09T08:02:39;10.03;;;5.33;;
9080;SDS011;13509;50.760;6.080;2023-10-09T08:05:08;10.60;;;5.37;;
9080;SDS011;13509;50.760;6.080;2023-10-09T08:07:48;11.00;;;5.53;;
9080;SDS011;13509;50.760;6.080;2023-10-09T08:10:39;10.17;;;5.27;;
9080;SDS011;13509;50.760;6.080;2023-10-09T08:13:41;7.90;;;5.33;;
9080;SDS011;13509;50.760;6.080;2023-10-09T08:16:26;8.53;;;4.97;;
9080;SDS011;13509;50.760;6.080;2023-10-09T08:19:03;7.83;;;5.33;;
9080;SDS011;13509;50.760;6.080;2023-10-09T08:21:57;9.97;;;5.70;;
9080;SDS011;13509;50.760;6.080;2023-10-09T08:24:43;10.03;;;5.03;;
9080;SDS011;13509;50.760;6.080;2023-10-09T08:27:22;10.27;;;5.17;;
9080;SDS011;13509;50.760;6.080;2023-10-09T08:30:14;8.57;;;5.20;;
9080;SDS011;13509;50.760;6.080;2023-10-09T08:32:55;12.47;;;5.37;;
9080;SDS011;13509;50.760;6.080;2023-10-09T08:35:32;8.57;;;5.57;;
9080;SDS011;13509;50.760;6.080;2023-10-09T08:38:02;8.50;;;5.43;;
9080;SDS011;13509;50.760;6.080;2023-10-09T08:40:35;10.73;;;6.00;;
9080;SDS011;13509;50.760;6.080;2023-10-09T08:43:08;7.70;;;5.23;;
9080;SDS011;13509;50.760;6.080;2023-10-09T08:45:39;14.03;;;5.77;;
9080;SDS011;13509;50.760;6.080;2023-10-09T08:48:07;9.97;;;5.57;;
9080;SDS011;13509;50.760;6.080;2023-10-09T08:50:42;9.47;;;5.83;;
9080;SDS011;13509;50.760;6.080;2023-10-09T08:53:11;7.77;;;5.40;;
9080;SDS011;13509;50.760;6.080;2023-10-09T08:55:40;10.53;;;5.43;;
9080;SDS011;13509;50.760;6.080;2023-10-09T08:58:09;8.83;;;5.70;;
9080;SDS011;13509;50.760;6.080;2023-10-09T09:00:43;10.10;;;5.67;;
9080;SDS011;13509;50.760;6.080;2023-10-09T09:03:13;9.03;;;5.63;;
9080;SDS011;13509;50.760;6.080;2023-10-09T09:05:45;11.87;;;6.23;;
9080;SDS011;13509;50.760;6.080;2023-10-09T09:08:22;9.87;;;6.20;;
9080;SDS011;13509;50.760;6.080;2023-10-09T09:10:58;11.50;;;5.30;;
9080;SDS011;13509;50.760;6.080;2023-10-09T09:13:41;11.77;;;5.80;;
9080;SDS011;13509;50.760;6.080;2023-10-09T09:16:17;10.13;;;5.97;;
9080;SDS011;13509;50.760;6.080;2023-10-09T09:18:49;10.23;;;6.07;;
9080;SDS011;13509;50.760;6.080;2023-10-09T09:21:32;9.53;;;5.77;;
9080;SDS011;13509;50.760;6.080;2023-10-09T09:24:06;10.37;;;5.33;;
9080;SDS011;13509;50.760;6.080;2023-10-09T09:26:53;7.93;;;5.13;;
9080;SDS011;13509;50.760;6.080;2023-10-09T09:29:37;10.67;;;5.77;;
9080;SDS011;13509;50.760;6.080;2023-10-09T09:32:08;10.93;;;5.37;;
9080;SDS011;13509;50.760;6.080;2023-10-09T09:34:44;9.30;;;5.33;;
9080;SDS011;13509;50.760;6.080;2023-10-09T09:37:18;9.93;;;5.03;;
9080;SDS011;13509;50.760;6.080;2023-10-09T09:39:47;10.00;;;5.30;;
9080;SDS011;13509;50.760;6.080;2023-10-09T09:42:21;10.43;;;5.40;;
9080;SDS011;13509;50.760;6.080;2023-10-09T09:44:53;8.53;;;5.00;;
9080;SDS011;13509;50.760;6.080;2023-10-09T09:47:23;5.97;;;4.83;;
9080;SDS011;13509;50.760;6.080;2023-10-09T09:49:54;8.07;;;5.07;;
9080;SDS011;13509;50.760;6.080;2023-10-09T09:52:30;7.77;;;4.90;;
9080;SDS011;13509;50.760;6.080;2023-10-09T09:55:06;11.03;;;4.60;;
9080;SDS011;13509;50.760;6.080;2023-10-09T09:57:40;8.47;;;4.87;;
9080;SDS011;13509;50.760;6.080;2023-10-09T10:00:12;7.37;;;4.73;;
9080;SDS011;13509;50.760;6.080;2023-10-09T10:02:59;9.67;;;4.60;;
9080;SDS011;13509;50.760;6.080;2023-10-09T10:05:28;7.87;;;4.20;;
9080;SDS011;13509;50.760;6.080;2023-10-09T10:07:58;5.47;;;4.07;;
9080;SDS011;13509;50.760;6.080;2023-10-09T10:10:36;8.87;;;4.03;;
9080;SDS011;13509;50.760;6.080;2023-10-09T10:13:06;6.97;;;4.03;;
9080;SDS011;13509;50.760;6.080;2023-10-09T10:18:33;5.33;;;3.43;;
9080;SDS011;13509;50.760;6.080;2023-10-09T10:21:12;10.03;;;3.80;;
9080;SDS011;13509;50.760;6.080;2023-10-09T10:23:43;7.37;;;4.07;;
9080;SDS011;13509;50.760;6.080;2023-10-09T10:26:17;6.60;;;3.70;;
9080;SDS011;13509;50.760;6.080;2023-10-09T10:31:51;7.93;;;4.17;;
9080;SDS011;13509;50.760;6.080;2023-10-09T10:34:22;7.43;;;3.87;;
9080;SDS011;13509;50.760;6.080;2023-10-09T10:36:51;7.27;;;4.07;;
9080;SDS011;13509;50.760;6.080;2023-10-09T10:39:24;8.57;;;4.00;;
9080;SDS011;13509;50.760;6.080;2023-10-09T10:42:14;9.57;;;3.87;;
9080;SDS011;13509;50.760;6.080;2023-10-09T10:45:00;5.53;;;3.80;;
9080;SDS011;13509;50.760;6.080;2023-10-09T10:47:29;7.33;;;3.50;;
9080;SDS011;13509;50.760;6.080;2023-10-09T10:50:02;7.00;;;3.53;;
9080;SDS011;13509;50.760;6.080;2023-10-09T10:53:07;7.73;;;3.70;;
9080;SDS011;13509;50.760;6.080;2023-10-09T10:55:55;6.63;;;3.60;;
9080;SDS011;13509;50.760;6.080;2023-10-09T10:58:23;5.50;;;3.50;;
9080;SDS011;13509;50.760;6.080;2023-10-09T11:01:01;4.80;;;3.90;;
9080;SDS011;13509;50.760;6.080;2023-10-09T11:03:41;7.47;;;3.70;;
9080;SDS011;13509;50.760;6.080;2023-10-09T11:06:28;6.33;;;3.57;;
9080;SDS011;13509;50.760;6.080;2023-10-09T11:09:09;7.07;;;3.37;;
9080;SDS011;13509;50.760;6.080;2023-10-09T11:11:48;5.80;;;3.60;;
9080;SDS011;13509;50.760;6.080;2023-10-09T11:14:17;6.47;;;3.43;;
9080;SDS011;13509;50.760;6.080;2023-10-09T11:16:50;7.00;;;3.53;;
9080;SDS011;13509;50.760;6.080;2023-10-09T11:19:24;6.20;;;3.63;;
9080;SDS011;13509;50.760;6.080;2023-10-09T11:21:59;8.87;;;3.90;;
9080;SDS011;13509;50.760;6.080;2023-10-09T11:24:46;5.63;;;3.57;;
9080;SDS011;13509;50.760;6.080;2023-10-09T11:27:27;5.50;;;3.43;;
9080;SDS011;13509;50.760;6.080;2023-10-09T11:29:59;6.37;;;3.87;;
9080;SDS011;13509;50.760;6.080;2023-10-09T11:32:47;6.07;;;3.87;;
9080;SDS011;13509;50.760;6.080;2023-10-09T11:35:16;5.93;;;3.93;;
9080;SDS011;13509;50.760;6.080;2023-10-09T11:37:57;4.77;;;3.73;;
9080;SDS011;13509;50.760;6.080;2023-10-09T11:40:27;4.50;;;3.20;;
9080;SDS011;13509;50.760;6.080;2023-10-09T11:43:00;6.87;;;3.70;;
9080;SDS011;13509;50.760;6.080;2023-10-09T11:45:30;5.17;;;3.50;;
9080;SDS011;13509;50.760;6.080;2023-10-09T11:48:15;7.83;;;3.57;;
9080;SDS011;13509;50.760;6.080;2023-10-09T11:50:47;6.73;;;4.03;;
9080;SDS011;13509;50.760;6.080;2023-10-09T11:53:20;4.93;;;3.53;;
9080;SDS011;13509;50.760;6.080;2023-10-09T11:56:01;8.93;;;3.83;;
9080;SDS011;13509;50.760;6.080;2023-10-09T11:58:30;10.63;;;3.80;;
9080;SDS011;13509;50.760;6.080;2023-10-09T12:00:58;7.77;;;4.07;;
9080;SDS011;13509;50.760;6.080;2023-10-09T12:03:32;11.20;;;3.80;;
9080;SDS011;13509;50.760;6.080;2023-10-09T12:06:01;6.30;;;4.07;;
9080;SDS011;13509;50.760;6.080;2023-10-09T12:08:34;6.50;;;3.93;;
9080;SDS011;13509;50.760;6.080;2023-10-09T12:11:03;8.63;;;3.63;;
9080;SDS011;13509;50.760;6.080;2023-10-09T12:13:35;8.17;;;3.93;;
9080;SDS011;13509;50.760;6.080;2023-10-09T12:16:05;5.17;;;3.23;;
9080;SDS011;13509;50.760;6.080;2023-10-09T12:18:36;8.47;;;3.90;;
9080;SDS011;13509;50.760;6.080;2023-10-09T12:21:06;5.83;;;3.77;;
9080;SDS011;13509;50.760;6.080;2023-10-09T12:23:35;7.63;;;3.67;;
9080;SDS011;13509;50.760;6.080;2023-10-09T12:26:04;7.00;;;3.37;;
9080;SDS011;13509;50.760;6.080;2023-10-09T12:28:40;6.80;;;3.70;;
9080;SDS011;13509;50.760;6.080;2023-10-09T12:31:12;7.73;;;3.93;;
9080;SDS011;13509;50.760;6.080;2023-10-09T12:33:41;6.20;;;3.87;;
9080;SDS011;13509;50.760;6.080;2023-10-09T12:36:11;6.50;;;3.30;;
9080;SDS011;13509;50.760;6.080;2023-10-09T12:38:47;5.17;;;3.50;;
9080;SDS011;13509;50.760;6.080;2023-10-09T12:41:18;4.70;;;3.63;;
9080;SDS011;13509;50.760;6.080;2023-10-09T12:43:52;6.73;;;3.40;;
9080;SDS011;13509;50.760;6.080;2023-10-09T12:46:21;7.80;;;3.33;;
9080;SDS011;13509;50.760;6.080;2023-10-09T12:48:52;7.23;;;3.80;;
9080;SDS011;13509;50.760;6.080;2023-10-09T12:51:22;7.43;;;3.57;;
9080;SDS011;13509;50.760;6.080;2023-10-09T12:53:58;7.23;;;4.10;;
9080;SDS011;13509;50.760;6.080;2023-10-09T12:56:28;9.53;;;3.70;;
9080;SDS011;13509;50.760;6.080;2023-10-09T12:59:04;7.17;;;3.30;;
9080;SDS011;13509;50.760;6.080;2023-10-09T13:01:33;5.90;;;3.33;;
9080;SDS011;13509;50.760;6.080;2023-10-09T13:04:09;6.33;;;3.40;;
9080;SDS011;13509;50.760;6.080;2023-10-09T13:06:40;7.17;;;3.60;;
9080;SDS011;13509;50.760;6.080;2023-10-09T13:09:12;5.93;;;3.67;;
9080;SDS011;13509;50.760;6.080;2023-10-09T13:11:41;6.47;;;3.67;;
9080;SDS011;13509;50.760;6.080;2023-10-09T13:14:10;7.43;;;3.53;;
9080;SDS011;13509;50.760;6.080;2023-10-09T13:16:44;6.47;;;3.77;;
9080;SDS011;13509;50.760;6.080;2023-10-09T13:19:13;5.80;;;3.47;;
9080;SDS011;13509;50.760;6.080;2023-10-09T13:21:42;7.37;;;3.87;;
9080;SDS011;13509;50.760;6.080;2023-10-09T13:24:11;7.63;;;3.13;;
9080;SDS011;13509;50.760;6.080;2023-10-09T13:26:42;11.87;;;3.87;;
9080;SDS011;13509;50.760;6.080;2023-10-09T13:29:13;5.80;;;3.17;;
9080;SDS011;13509;50.760;6.080;2023-10-09T13:31:48;7.50;;;3.70;;
9080;SDS011;13509;50.760;6.080;2023-10-09T13:34:19;6.37;;;3.63;;
9080;SDS011;13509;50.760;6.080;2023-10-09T13:36:47;7.33;;;3.40;;
9080;SDS011;13509;50.760;6.080;2023-10-09T13:39:21;7.23;;;3.30;;
9080;SDS011;13509;50.760;6.080;2023-10-09T13:41:52;7.10;;;3.77;;
9080;SDS011;13509;50.760;6.080;2023-10-09T13:44:25;8.20;;;3.67;;
9080;SDS011;13509;50.760;6.080;2023-10-09T13:46:54;6.40;;;3.60;;
9080;SDS011;13509;50.760;6.080;2023-10-09T13:49:23;8.00;;;4.13;;
9080;SDS011;13509;50.760;6.080;2023-10-09T13:51:56;10.37;;;3.40;;
9080;SDS011;13509;50.760;6.080;2023-10-09T13:54:27;7.40;;;3.93;;
9080;SDS011;13509;50.760;6.080;2023-10-09T13:57:06;8.77;;;3.93;;
9080;SDS011;13509;50.760;6.080;2023-10-09T13:59:37;6.60;;;3.70;;
9080;SDS011;13509;50.760;6.080;2023-10-09T14:02:09;6.60;;;3.40;;
9080;SDS011;13509;50.760;6.080;2023-10-09T14:04:44;8.97;;;3.70;;
9080;SDS011;13509;50.760;6.080;2023-10-09T14:07:14;7.30;;;3.90;;
9080;SDS011;13509;50.760;6.080;2023-10-09T14:09:45;5.93;;;3.30;;
9080;SDS011;13509;50.760;6.080;2023-10-09T14:12:22;6.60;;;4.00;;
9080;SDS011;13509;50.760;6.080;2023-10-09T14:14:56;9.03;;;4.10;;
9080;SDS011;13509;50.760;6.080;2023-10-09T14:17:24;6.40;;;3.50;;
9080;SDS011;13509;50.760;6.080;2023-10-09T14:19:55;9.93;;;4.30;;
9080;SDS011;13509;50.760;6.080;2023-10-09T14:22:44;7.37;;;4.20;;
9080;SDS011;13509;50.760;6.080;2023-10-09T14:25:20;6.13;;;3.80;;
9080;SDS011;13509;50.760;6.080;2023-10-09T14:27:49;6.93;;;3.50;;
9080;SDS011;13509;50.760;6.080;2023-10-09T14:30:19;7.63;;;4.20;;
9080;SDS011;13509;50.760;6.080;2023-10-09T14:32:57;6.70;;;3.87;;
9080;SDS011;13509;50.760;6.080;2023-10-09T14:35:28;6.40;;;3.80;;
9080;SDS011;13509;50.760;6.080;2023-10-09T14:37:58;7.13;;;4.13;;
9080;SDS011;13509;50.760;6.080;2023-10-09T14:40:29;7.47;;;4.03;;
9080;SDS011;13509;50.760;6.080;2023-10-09T14:42:58;8.93;;;3.93;;
9080;SDS011;13509;50.760;6.080;2023-10-09T14:45:26;8.47;;;3.83;;
9080;SDS011;13509;50.760;6.080;2023-10-09T14:47:55;7.53;;;4.10;;
9080;SDS011;13509;50.760;6.080;2023-10-09T14:50:26;8.93;;;3.97;;
9080;SDS011;13509;50.760;6.080;2023-10-09T14:52:55;7.63;;;3.87;;
9080;SDS011;13509;50.760;6.080;2023-10-09T14:55:24;6.27;;;3.87;;
9080;SDS011;13509;50.760;6.080;2023-10-09T14:57:57;9.60;;;4.60;;
9080;SDS011;13509;50.760;6.080;2023-10-09T15:00:25;5.77;;;4.00;;
9080;SDS011;13509;50.760;6.080;2023-10-09T15:02:54;7.73;;;4.33;;
9080;SDS011;13509;50.760;6.080;2023-10-09T15:05:22;7.37;;;4.20;;
9080;SDS011;13509;50.760;6.080;2023-10-09T15:07:52;6.33;;;3.90;;
9080;SDS011;13509;50.760;6.080;2023-10-09T15:10:20;7.20;;;4.53;;
9080;SDS011;13509;50.760;6.080;2023-10-09T15:12:50;8.03;;;4.50;;
9080;SDS011;13509;50.760;6.080;2023-10-09T15:15:20;10.37;;;3.97;;
9080;SDS011;13509;50.760;6.080;2023-10-09T15:17:52;6.83;;;4.43;;
9080;SDS011;13509;50.760;6.080;2023-10-09T15:20:20;6.00;;;4.03;;
9080;SDS011;13509;50.760;6.080;2023-10-09T15:22:48;8.10;;;4.50;;
9080;SDS011;13509;50.760;6.080;2023-10-09T15:25:17;6.40;;;4.10;;
9080;SDS011;13509;50.760;6.080;2023-10-09T15:27:45;7.33;;;3.87;;
9080;SDS011;13509;50.760;6.080;2023-10-09T15:30:13;6.37;;;4.10;;
9080;SDS011;13509;50.760;6.080;2023-10-09T15:32:45;7.80;;;4.30;;
9080;SDS011;13509;50.760;6.080;2023-10-09T15:35:15;6.47;;;3.67;;
9080;SDS011;13509;50.760;6.080;2023-10-09T15:37:45;7.43;;;4.27;;
9080;SDS011;13509;50.760;6.080;2023-10-09T15:40:13;7.47;;;3.90;;
9080;SDS011;13509;50.760;6.080;2023-10-09T15:42:44;9.63;;;4.13;;
9080;SDS011;13509;50.760;6.080;2023-10-09T15:45:16;7.30;;;4.40;;
9080;SDS011;13509;50.760;6.080;2023-10-09T15:47:49;6.43;;;4.20;;
9080;SDS011;13509;50.760;6.080;2023-10-09T15:50:18;9.53;;;4.20;;